Terminal Aerodrome Forecast
Issued by NWS Green Bay, WI

Home | Current Version | Previous Version | Text Only | Print | Product List | Glossary Off
Versions: 1 2 3 4 5 6 7 8 9 10 11 12 13 14 15 16 17 18 19 20 21 22 23 24 25 26 27 28 29

000
FTUS43 KGRB 151100
TAFGRB
TAF
KGRB 151125Z 1512/1612 32008KT P6SM SKC
     FM151500 29010G18KT P6SM SCT050
      TEMPO 1516/1520 BKN050
     FM152300 26007KT P6SM SCT200
     FM160400 VRB03KT P6SM BKN140
     FM160900 12007KT P6SM OVC080=

USA.gov is the U.S. government's official web portal to all federal, state and local government web resources and services.